Time,TemperatureF,DewpointF,PressureIn,WindDirection,WindDirectionDegrees,WindSpeedMPH,WindSpeedGustMPH,Humidity,HourlyPrecipIn,Conditions,Clouds,dailyrainin,SolarRadiationWatts/m^2,SoftwareType,DateUTC
2013-01-16 00:22:00,39.0,9.0,-100.00,ESE,102,11.0,21.0,28,-99.99,,,-99.99,0.000000,,2013-01-16 08:22:00,
2013-01-16 01:22:00,43.0,4.0,-100.00,East,90,10.0,19.0,20,-99.99,,,-99.99,0.000000,,2013-01-16 09:22:00,
2013-01-16 02:22:00,43.0,0.0,-100.00,ENE,73,10.0,21.0,16,-99.99,,,-99.99,0.000000,,2013-01-16 10:22:00,
2013-01-16 02:30:00,43.0,0.0,-100.00,East,80,10.0,19.0,16,-99.99,,,-99.99,0.000000,,2013-01-16 10:30:00,
2013-01-16 03:22:00,43.0,0.0,-100.00,East,80,10.0,19.0,16,-99.99,,,-99.99,0.000000,,2013-01-16 11:22:00,
2013-01-16 03:30:00,41.0,1.0,-100.00,East,96,11.0,21.0,18,-99.99,,,-99.99,0.000000,,2013-01-16 11:30:00,
2013-01-16 04:22:00,41.0,1.0,-100.00,East,96,11.0,21.0,18,-99.99,,,-99.99,0.000000,,2013-01-16 12:22:00,
2013-01-16 04:30:00,42.0,-4.0,-100.00,East,90,10.0,20.0,14,-99.99,,,-99.99,0.000000,,2013-01-16 12:30:00,
2013-01-16 05:22:00,42.0,-4.0,-100.00,East,90,10.0,20.0,14,-99.99,,,-99.99,0.000000,,2013-01-16 13:22:00,
2013-01-16 05:30:00,41.0,-8.0,-100.00,East,97,10.0,17.0,12,-99.99,,,-99.99,0.000000,,2013-01-16 13:30:00,
2013-01-16 06:22:00,41.0,-8.0,-100.00,East,97,10.0,17.0,12,-99.99,,,-99.99,0.000000,,2013-01-16 14:22:00,
2013-01-16 07:22:00,39.0,-6.0,-100.00,ESE,111,10.0,17.0,14,-99.99,,,-99.99,0.000000,,2013-01-16 15:22:00,
2013-01-16 07:30:00,42.0,-9.0,-100.00,East,90,10.0,17.0,11,-99.99,,,-99.99,4.000000,,2013-01-16 15:30:00,
2013-01-16 08:22:00,42.0,-9.0,-100.00,East,90,10.0,17.0,11,-99.99,,,-99.99,4.000000,,2013-01-16 16:22:00,
2013-01-16 08:30:00,45.0,-8.0,-100.00,East,86,10.0,18.0,10,-99.99,,,-99.99,120.000000,,2013-01-16 16:30:00,
2013-01-16 09:22:00,45.0,-8.0,-100.00,East,86,10.0,18.0,10,-99.99,,,-99.99,120.000000,,2013-01-16 17:22:00,
2013-01-16 09:30:00,44.0,-9.0,-100.00,East,93,10.0,17.0,10,-99.99,,,-99.99,25.000000,,2013-01-16 17:30:00,
2013-01-16 10:23:00,44.0,-9.0,-100.00,East,93,10.0,17.0,10,-99.99,,,-99.99,25.000000,,2013-01-16 18:23:00,
2013-01-16 10:30:00,45.0,-8.0,-100.00,East,101,9.0,16.0,10,-99.99,,,-99.99,353.000000,,2013-01-16 18:30:00,
2013-01-16 11:23:00,45.0,-8.0,-100.00,East,101,9.0,16.0,10,-99.99,,,-99.99,353.000000,,2013-01-16 19:23:00,
2013-01-16 11:30:00,46.0,-7.0,-100.00,East,83,7.0,16.0,10,-99.99,,,-99.99,415.000000,,2013-01-16 19:30:00,
2013-01-16 12:23:00,46.0,-7.0,-100.00,East,83,7.0,16.0,10,-99.99,,,-99.99,415.000000,,2013-01-16 20:23:00,
2013-01-16 12:30:00,47.0,-9.0,-100.00,East,79,8.0,17.0,9,-99.99,,,-99.99,424.000000,,2013-01-16 20:30:00,
2013-01-16 13:22:00,47.0,-9.0,-100.00,East,79,8.0,17.0,9,-99.99,,,-99.99,424.000000,,2013-01-16 21:22:00,
2013-01-16 13:30:00,47.0,-6.0,-100.00,East,86,6.0,14.0,10,-99.99,,,-99.99,381.000000,,2013-01-16 21:30:00,
2013-01-16 14:22:00,47.0,-6.0,-100.00,East,86,6.0,14.0,10,-99.99,,,-99.99,381.000000,,2013-01-16 22:22:00,
2013-01-16 14:30:00,46.0,-5.0,-100.00,ESE,120,6.0,12.0,11,-99.99,,,-99.99,119.000000,,2013-01-16 22:30:00,
2013-01-16 15:22:00,46.0,-5.0,-100.00,ESE,120,6.0,12.0,11,-99.99,,,-99.99,119.000000,,2013-01-16 23:22:00,
2013-01-16 15:30:00,45.0,-6.0,-100.00,ESE,104,10.0,18.0,11,-99.99,,,-99.99,36.000000,,2013-01-16 23:30:00,
2013-01-16 16:22:00,45.0,-6.0,-100.00,ESE,104,10.0,18.0,11,-99.99,,,-99.99,36.000000,,2013-01-17 00:22:00,
2013-01-16 17:22:00,43.0,-6.0,-100.00,East,100,9.0,16.0,12,-99.99,,,-99.99,40.000000,,2013-01-17 01:22:00,
2013-01-16 18:22:00,40.0,-7.0,-100.00,ESE,111,9.0,18.0,13,-99.99,,,-99.99,0.000000,,2013-01-17 02:22:00,
2013-01-16 19:22:00,43.0,-17.0,-100.00,East,83,10.0,16.0,7,-99.99,,,-99.99,0.000000,,2013-01-17 03:22:00,
2013-01-16 20:22:00,44.0,-19.0,-100.00,East,91,9.0,17.0,6,-99.99,,,-99.99,0.000000,,2013-01-17 04:22:00,
2013-01-16 21:22:00,42.0,-17.0,-100.00,East,94,9.0,16.0,7,-99.99,,,-99.99,0.000000,,2013-01-17 05:22:00,
2013-01-16 22:22:00,42.0,-17.0,-100.00,East,94,9.0,15.0,7,-99.99,,,-99.99,0.000000,,2013-01-17 06:22:00,
2013-01-16 23:22:00,42.0,-18.0,-100.00,ESE,108,9.0,19.0,7,-99.99,,,-99.99,0.000000,,2013-01-17 07:22:00,
2013-01-16 23:30:00,42.0,-15.0,-100.00,ESE,112,9.0,16.0,8,-99.99,,,-99.99,0.000000,,2013-01-17 07:30:00,